This is the latest recevied weather packets stored in our database for station/object HG8GL-6. If no packets are shown the sender has not sent any weather packets the latest 10 day(s).
| Time | Temp. | Humidity | Pressure | Rain* | Wind** | Luminosity | Snow |
|---|---|---|---|---|---|---|---|
| 1778044877 | 15.56° C | 71% | 1012 hPa | 0 mm | - | - | - |
| 1778044247 | 15° C | 72% | 1012.2 hPa | 0 mm | - | - | - |
| 1778043647 | 14.44° C | 74% | 1013 hPa | 0 mm | - | - | - |
| 1778043047 | 13.89° C | 74% | 1012 hPa | 0 mm | - | - | - |
| 1778042447 | 13.33° C | 74% | 1012 hPa | 0 mm | - | - | - |
| 1778041817 | 13.33° C | 74% | 1012 hPa | 0 mm | - | - | - |
| 1778041187 | 12.78° C | 74% | 1012 hPa | 0 mm | - | - | - |
| 1778040557 | 12.78° C | 74% | 1012 hPa | 0 mm | - | - | - |
| 1778039927 | 12.78° C | 74% | 1012 hPa | 0 mm | - | - | - |
| 1778039327 | 12.78° C | 73% | 1012 hPa | 0 mm | - | - | - |
| 1778038697 | 12.78° C | 72% | 1012 hPa | 0 mm | - | - | - |
| 1778038066 | 12.78° C | 71% | 1012 hPa | 0 mm | - | - | - |
| 1778037437 | 12.78° C | 71% | 1012 hPa | 0 mm | - | - | - |
| 1778036836 | 12.78° C | 69% | 1012 hPa | 0 mm | - | - | - |
| 1778036236 | 12.78° C | 69% | 1012 hPa | 0 mm | - | - | - |
| 1778035606 | 12.22° C | 68% | 1012 hPa | 0 mm | - | - | - |
| 1778035006 | 12.22° C | 65% | 1012 hPa | 0 mm | - | - | - |
| 1778034376 | 12.22° C | 65% | 1012 hPa | 0 mm | - | - | - |
| 1778033746 | 12.22° C | 65% | 1013 hPa | 0 mm | - | - | - |
| 1778033116 | 12.22° C | 64% | 1013 hPa | 0 mm | - | - | - |
| 1778032516 | 12.78° C | 63% | 1013 hPa | 0 mm | - | - | - |
| 1778031226 | 12.78° C | 61% | 1013 hPa | 0 mm | - | - | - |
| 1778027596 | 14.44° C | 55% | 1012 hPa | 0 mm | - | - | - |
| 1778026336 | 15° C | 54% | 1012 hPa | 0 mm | - | - | - |
| 1778023876 | 15.56° C | 55% | 1012 hPa | 0 mm | - | - | - |
* Rain latest hour (hover to see other rain measurements)
** Current wind speed in m/s (hover to see current wind gust speed)